Terminal Aerodrome Forecast
Issued by NWS Wilmington, OH

Current Version | Previous Version | Text Only | Print | Product List | Glossary Off
Versions: 1 2 3 4 5 6 7 8 9 10 11 12 13 14 15 16 17 18 19 20 21 22 23 24 25 26 27 28

000
FTUS41 KILN 240100 AAA
TAFDAY
TAF AMD
KDAY 240101Z 2401/2424 34004KT P6SM SCT030 BKN100
      TEMPO 2401/2405 BKN025
     FM240500 29005KT P6SM BKN018
     FM241500 26010G18KT P6SM BKN100
     FM242000 28012G20KT P6SM BKN025=

USA.gov is the U.S. government's official web portal to all federal, state and local government web resources and services.